createdAt,value
2018-08-09T00:00:16.499Z,1.37
2018-08-09T00:02:44.604Z,1.20
2018-08-09T00:05:12.688Z,1.90
2018-08-09T00:07:40.852Z,1.33
2018-08-09T00:10:08.982Z,1.33
2018-08-09T22:03:21.568Z,0.80
2018-08-09T22:05:55.092Z,0.70
2018-08-09T22:08:28.626Z,0.60
2018-08-09T22:11:02.695Z,0.60
2018-08-09T22:13:36.243Z,0.60
2018-08-09T22:16:10.511Z,0.70
2018-08-09T22:19:41.831Z,0.50
2018-08-09T22:22:11.467Z,0.50
2018-08-09T22:24:39.932Z,0.60
2018-08-09T22:27:08.527Z,0.53
2018-08-09T22:29:36.616Z,0.60
2018-08-09T22:32:04.710Z,0.60
2018-08-09T22:34:33.053Z,0.60
2018-08-09T22:37:01.292Z,0.60
2018-08-09T22:39:29.379Z,0.50
2018-08-09T22:41:57.481Z,0.73
2018-08-09T22:44:25.584Z,0.50
2018-08-09T22:46:53.667Z,0.60
2018-08-09T22:49:21.758Z,0.60
2018-08-09T22:51:49.864Z,0.60
2018-08-09T22:54:17.958Z,0.75
2018-08-09T22:56:46.063Z,0.50
2018-08-09T22:59:14.164Z,0.60
2018-08-09T23:01:42.278Z,0.50
2018-08-09T23:04:10.368Z,0.50
2018-08-09T23:06:38.495Z,0.60
2018-08-09T23:09:09.029Z,0.70
2018-08-09T23:11:37.479Z,0.50
2018-08-09T23:14:05.655Z,0.60
2018-08-09T23:16:33.753Z,0.60
2018-08-09T23:19:01.844Z,0.50
2018-08-09T23:21:30.790Z,0.70
2018-08-09T23:23:58.927Z,0.77
2018-08-09T23:26:27.043Z,0.53
2018-08-09T23:28:55.303Z,0.70
2018-08-09T23:31:23.418Z,0.50
2018-08-09T23:33:51.534Z,0.60
2018-08-09T23:36:19.623Z,0.50
2018-08-09T23:38:47.727Z,0.60
2018-08-09T23:41:16.403Z,0.60
2018-08-09T23:43:44.496Z,0.50
2018-08-09T23:46:12.580Z,0.80
2018-08-09T23:48:40.734Z,0.50
2018-08-09T23:51:08.827Z,0.53
2018-08-09T23:53:36.904Z,0.60
2018-08-09T23:56:04.989Z,0.60
2018-08-09T23:58:33.372Z,0.50
